Time;durP1;ratioP1;P1;durP2;ratioP2;P2;SDS_P1;SDS_P2;PMS_P1;PMS_P2;Temp;Humidity;BMP_temperature;BMP_pressure;BME280_temperature;BME280_humidity;BME280_pressure;Samples;Min_cycle;Max_cycle;Signal;HPM_P1;HPM_P2
2023/12/18 00:01:02;;;;;;;173.40;13.07;;;;;;;;;;8232897;28;20534;-57
2023/12/18 00:05:02;;;;;;;38.97;7.32;;;;;;;;;;8233335;28;20029;-56
2023/12/18 00:09:02;;;;;;;9.13;6.78;;;;;;;;;;8224814;28;20042;-58
2023/12/18 00:13:02;;;;;;;12.93;7.88;;;;;;;;;;8221103;28;20693;-58
2023/12/18 00:17:03;;;;;;;11.10;8.23;;;;;;;;;;8215853;28;20045;-57
2023/12/18 00:21:03;;;;;;;12.43;7.88;;;;;;;;;;8215443;28;20567;-58
2023/12/18 00:25:04;;;;;;;12.18;8.88;;;;;;;;;;8222233;28;20021;-57
2023/12/18 00:29:04;;;;;;;12.38;8.30;;;;;;;;;;8230491;28;20018;-57
2023/12/18 00:33:04;;;;;;;13.82;9.02;;;;;;;;;;8228657;28;20042;-58
2023/12/18 00:37:05;;;;;;;41.90;9.05;;;;;;;;;;8225101;28;20029;-58
2023/12/18 00:41:05;;;;;;;130.45;12.05;;;;;;;;;;8226691;28;20100;-59
2023/12/18 00:45:05;;;;;;;37.63;7.33;;;;;;;;;;8226466;28;20033;-58
2023/12/18 00:49:06;;;;;;;45.70;7.18;;;;;;;;;;8226796;28;22353;-57
2023/12/18 00:53:06;;;;;;;35.42;7.22;;;;;;;;;;8225633;28;20026;-58
2023/12/18 00:57:06;;;;;;;13.63;6.37;;;;;;;;;;8224557;28;20131;-58
2023/12/18 01:01:06;;;;;;;9.30;7.28;;;;;;;;;;8224515;28;20293;-58
2023/12/18 01:05:07;;;;;;;10.77;6.90;;;;;;;;;;8225932;28;20032;-58
2023/12/18 01:09:09;;;;;;;15.10;7.72;;;;;;;;;;8229910;28;20029;-57
2023/12/18 01:13:09;;;;;;;18.00;10.02;;;;;;;;;;8238021;28;20030;-57
2023/12/18 01:17:11;;;;;;;16.30;8.35;;;;;;;;;;8236919;28;20045;-56
2023/12/18 01:21:12;;;;;;;332.42;20.40;;;;;;;;;;8226110;28;20018;-58
2023/12/18 01:25:12;;;;;;;30.23;9.25;;;;;;;;;;8227965;28;20108;-58
2023/12/18 01:29:12;;;;;;;11.35;7.78;;;;;;;;;;8234586;28;21043;-58
2023/12/18 01:33:13;;;;;;;20.60;7.18;;;;;;;;;;8235258;28;20641;-58
2023/12/18 01:37:14;;;;;;;310.70;20.50;;;;;;;;;;8234689;28;20030;-58
2023/12/18 01:41:14;;;;;;;198.30;13.55;;;;;;;;;;8233085;28;20022;-58
2023/12/18 01:45:14;;;;;;;33.38;7.07;;;;;;;;;;8233564;28;20029;-57
2023/12/18 01:49:15;;;;;;;289.23;19.58;;;;;;;;;;8230058;28;20117;-58
2023/12/18 01:53:15;;;;;;;9.10;5.85;;;;;;;;;;8225347;28;20069;-58
2023/12/18 01:57:17;;;;;;;97.72;9.85;;;;;;;;;;8224669;28;20473;-56
2023/12/18 02:01:17;;;;;;;25.80;7.35;;;;;;;;;;8222383;28;20304;-58
2023/12/18 02:05:18;;;;;;;9.25;7.22;;;;;;;;;;8221423;28;21016;-56
2023/12/18 02:09:18;;;;;;;9.23;6.73;;;;;;;;;;8224879;28;20045;-58
2023/12/18 02:13:18;;;;;;;13.20;7.60;;;;;;;;;;8224255;28;20403;-57
2023/12/18 02:17:18;;;;;;;9.32;7.15;;;;;;;;;;8223669;28;20281;-57
2023/12/18 02:21:19;;;;;;;12.90;8.57;;;;;;;;;;8225026;28;20029;-57
2023/12/18 02:25:20;;;;;;;14.27;7.68;;;;;;;;;;8225915;28;20229;-57
2023/12/18 02:29:20;;;;;;;11.88;7.70;;;;;;;;;;8223228;28;20475;-56
2023/12/18 02:33:21;;;;;;;31.88;9.65;;;;;;;;;;8226967;28;20046;-57
2023/12/18 02:37:23;;;;;;;41.33;8.95;;;;;;;;;;8227399;28;20518;-57
2023/12/18 02:41:23;;;;;;;11.32;7.07;;;;;;;;;;8228101;28;20695;-57
2023/12/18 02:45:23;;;;;;;13.45;6.90;;;;;;;;;;8229592;28;20042;-57
2023/12/18 02:49:23;;;;;;;9.93;7.47;;;;;;;;;;8225013;28;20060;-57
2023/12/18 02:53:24;;;;;;;19.40;8.23;;;;;;;;;;8229174;28;20084;-56
2023/12/18 02:57:24;;;;;;;18.73;8.38;;;;;;;;;;8224290;28;20022;-57
2023/12/18 03:01:24;;;;;;;267.13;15.87;;;;;;;;;;8225775;28;20030;-57
2023/12/18 03:05:24;;;;;;;196.50;12.30;;;;;;;;;;8230074;28;20268;-56
2023/12/18 03:09:24;;;;;;;248.02;14.77;;;;;;;;;;8227878;28;20036;-56
2023/12/18 03:13:24;;;;;;;55.30;7.60;;;;;;;;;;8231163;28;20125;-57
2023/12/18 03:17:25;;;;;;;229.60;14.25;;;;;;;;;;8229669;28;20034;-56
2023/12/18 03:21:25;;;;;;;27.88;8.25;;;;;;;;;;8228296;28;20022;-57
2023/12/18 03:25:25;;;;;;;9.85;6.63;;;;;;;;;;8228493;28;20079;-56
2023/12/18 03:29:25;;;;;;;10.38;6.93;;;;;;;;;;8225718;28;20215;-57
2023/12/18 03:33:25;;;;;;;11.77;7.88;;;;;;;;;;8221510;28;20038;-57
2023/12/18 03:37:26;;;;;;;40.92;7.00;;;;;;;;;;8222263;28;20497;-56
2023/12/18 03:41:26;;;;;;;46.03;7.43;;;;;;;;;;8222142;28;20057;-57
2023/12/18 03:45:26;;;;;;;8.82;7.03;;;;;;;;;;8222875;28;20034;-57
2023/12/18 03:49:26;;;;;;;8.60;6.15;;;;;;;;;;8223934;28;20653;-57
2023/12/18 03:53:27;;;;;;;7.93;6.45;;;;;;;;;;8229936;28;20029;-58
2023/12/18 03:57:27;;;;;;;7.43;6.05;;;;;;;;;;8231952;28;20056;-57
2023/12/18 04:01:36;;;;;;;8.25;5.95;;;;;;;;;;8235667;28;20069;-57
2023/12/18 04:05:36;;;;;;;539.90;25.38;;;;;;;;;;8235082;28;20030;-57
2023/12/18 04:09:37;;;;;;;137.73;10.10;;;;;;;;;;8233596;28;20029;-56
2023/12/18 04:13:39;;;;;;;332.95;17.67;;;;;;;;;;8229007;28;20285;-57
2023/12/18 04:17:39;;;;;;;328.65;16.38;;;;;;;;;;8224234;28;20030;-57
2023/12/18 04:21:39;;;;;;;112.35;8.43;;;;;;;;;;8223942;28;20675;-56
2023/12/18 04:25:39;;;;;;;234.77;12.82;;;;;;;;;;8223481;28;20026;-57
2023/12/18 04:29:40;;;;;;;364.17;24.95;;;;;;;;;;8225136;28;21188;-56
2023/12/18 04:33:40;;;;;;;443.90;23.23;;;;;;;;;;8225927;28;20065;-56
2023/12/18 04:37:41;;;;;;;326.67;17.48;;;;;;;;;;8220071;28;20134;-57
2023/12/18 04:41:41;;;;;;;65.27;6.50;;;;;;;;;;8233909;28;20028;-56
2023/12/18 04:45:41;;;;;;;66.15;6.32;;;;;;;;;;8228481;28;20277;-57
2023/12/18 04:49:41;;;;;;;72.07;7.50;;;;;;;;;;8234608;28;20033;-57
2023/12/18 04:53:41;;;;;;;133.45;10.02;;;;;;;;;;8230623;28;20113;-57
2023/12/18 04:57:42;;;;;;;29.73;6.55;;;;;;;;;;8229947;28;20567;-57
2023/12/18 05:01:42;;;;;;;11.73;6.05;;;;;;;;;;8223856;28;20101;-58
2023/12/18 05:05:42;;;;;;;179.63;12.20;;;;;;;;;;8229710;28;20022;-57
2023/12/18 05:09:43;;;;;;;33.53;7.50;;;;;;;;;;8227180;28;20276;-57
2023/12/18 05:13:43;;;;;;;89.43;7.78;;;;;;;;;;8228429;28;20030;-57
2023/12/18 05:17:43;;;;;;;99.13;8.30;;;;;;;;;;8230830;28;20177;-56
2023/12/18 05:21:43;;;;;;;38.35;6.07;;;;;;;;;;8219874;28;20026;-57
2023/12/18 05:25:44;;;;;;;14.10;5.88;;;;;;;;;;8222164;28;20045;-57
2023/12/18 05:29:44;;;;;;;281.03;20.20;;;;;;;;;;8220318;28;20034;-58
2023/12/18 05:33:44;;;;;;;142.05;11.73;;;;;;;;;;8221007;28;20292;-57
2023/12/18 05:37:44;;;;;;;105.75;8.65;;;;;;;;;;8222814;28;20052;-58
2023/12/18 05:41:45;;;;;;;108.60;10.17;;;;;;;;;;8223296;28;20022;-57
2023/12/18 05:45:45;;;;;;;29.95;8.30;;;;;;;;;;8221204;28;20265;-58
2023/12/18 05:49:45;;;;;;;19.55;6.70;;;;;;;;;;8230099;28;20022;-58
2023/12/18 05:53:45;;;;;;;32.92;7.15;;;;;;;;;;8233492;28;20036;-56
2023/12/18 05:57:46;;;;;;;8.55;5.47;;;;;;;;;;8231434;28;20157;-58
2023/12/18 06:01:46;;;;;;;6.65;5.40;;;;;;;;;;8226357;28;20076;-57
2023/12/18 06:05:46;;;;;;;23.13;6.82;;;;;;;;;;8223360;28;20331;-58
2023/12/18 06:09:46;;;;;;;6.73;5.97;;;;;;;;;;8222362;28;20061;-57
2023/12/18 06:13:46;;;;;;;9.90;6.20;;;;;;;;;;8229073;28;20279;-57
2023/12/18 06:17:47;;;;;;;24.50;10.80;;;;;;;;;;8228290;28;20045;-58
2023/12/18 06:21:47;;;;;;;19.87;10.13;;;;;;;;;;8231010;28;20300;-58
2023/12/18 06:25:47;;;;;;;32.77;13.90;;;;;;;;;;8231622;28;20657;-58
2023/12/18 06:29:47;;;;;;;43.72;17.05;;;;;;;;;;8228045;28;21101;-57
2023/12/18 06:33:48;;;;;;;21.23;10.50;;;;;;;;;;8229242;28;20438;-57
2023/12/18 06:37:48;;;;;;;11.93;7.57;;;;;;;;;;8228523;28;20116;-59
2023/12/18 06:41:48;;;;;;;10.63;6.97;;;;;;;;;;8227956;28;20137;-57
2023/12/18 06:45:50;;;;;;;12.25;7.18;;;;;;;;;;8223392;28;20103;-57
2023/12/18 06:49:50;;;;;;;11.98;8.52;;;;;;;;;;8226070;28;20133;-57
2023/12/18 06:53:50;;;;;;;13.97;8.83;;;;;;;;;;8230307;28;20080;-57
2023/12/18 06:57:50;;;;;;;12.10;7.75;;;;;;;;;;8229823;28;21063;-57
2023/12/18 07:01:51;;;;;;;10.63;7.68;;;;;;;;;;8220971;28;20036;-57
2023/12/18 07:05:51;;;;;;;10.57;7.10;;;;;;;;;;8227282;28;20931;-57
2023/12/18 07:09:51;;;;;;;9.75;6.72;;;;;;;;;;8227986;28;20758;-57
2023/12/18 07:13:52;;;;;;;9.43;6.83;;;;;;;;;;8230142;28;20519;-57
2023/12/18 07:17:52;;;;;;;13.13;7.38;;;;;;;;;;8230455;28;20775;-57
2023/12/18 07:21:52;;;;;;;10.80;6.95;;;;;;;;;;8225921;28;20030;-56
2023/12/18 07:25:53;;;;;;;8.27;5.88;;;;;;;;;;8227963;28;20025;-56
2023/12/18 07:29:53;;;;;;;6.78;5.53;;;;;;;;;;8228731;28;20161;-58
2023/12/18 07:33:53;;;;;;;8.23;6.50;;;;;;;;;;8223395;28;20478;-56
2023/12/18 07:37:54;;;;;;;8.63;6.68;;;;;;;;;;8218727;28;20418;-57
2023/12/18 07:41:54;;;;;;;8.73;5.75;;;;;;;;;;8226780;28;20026;-57
2023/12/18 07:45:54;;;;;;;8.00;6.00;;;;;;;;;;8222454;28;20034;-57
2023/12/18 07:49:54;;;;;;;9.10;6.20;;;;;;;;;;8222720;28;20821;-58
2023/12/18 07:53:54;;;;;;;9.95;7.03;;;;;;;;;;8225964;28;20030;-58
2023/12/18 07:57:54;;;;;;;113.95;11.75;;;;;;;;;;8225905;28;20137;-57
2023/12/18 08:01:55;;;;;;;24.23;7.13;;;;;;;;;;8227494;28;20046;-57
2023/12/18 08:05:55;;;;;;;34.35;7.65;;;;;;;;;;8227935;28;20069;-57
2023/12/18 08:09:55;;;;;;;18.55;6.80;;;;;;;;;;8227095;28;20034;-61
2023/12/18 08:13:55;;;;;;;9.82;7.38;;;;;;;;;;8224406;28;20372;-57
2023/12/18 08:17:56;;;;;;;10.00;6.82;;;;;;;;;;8225334;28;20054;-58
2023/12/18 08:21:56;;;;;;;16.45;8.05;;;;;;;;;;8229909;28;20021;-56
2023/12/18 08:25:57;;;;;;;8.52;6.47;;;;;;;;;;8230021;28;20363;-56
2023/12/18 08:29:57;;;;;;;9.65;6.90;;;;;;;;;;8228009;28;20034;-57
2023/12/18 08:33:57;;;;;;;19.65;8.85;;;;;;;;;;8227512;28;20042;-57
2023/12/18 08:37:57;;;;;;;10.23;7.68;;;;;;;;;;8221865;28;20136;-57
2023/12/18 08:41:58;;;;;;;10.45;6.85;;;;;;;;;;8227139;28;20033;-57
2023/12/18 08:45:58;;;;;;;9.20;6.25;;;;;;;;;;8223318;28;20038;-57
2023/12/18 08:49:58;;;;;;;10.63;6.85;;;;;;;;;;8231466;28;20036;-57
2023/12/18 08:54:04;;;;;;;13.10;6.22;;;;;;;;;;8231827;28;20112;-57
2023/12/18 08:58:08;;;;;;;18.55;8.35;;;;;;;;;;8233963;28;20029;-58
2023/12/18 09:02:09;;;;;;;19.77;9.43;;;;;;;;;;8230303;28;20038;-58
2023/12/18 09:06:09;;;;;;;18.92;8.32;;;;;;;;;;8233713;28;20089;-58
2023/12/18 09:10:11;;;;;;;15.88;7.63;;;;;;;;;;8227616;28;20056;-57
2023/12/18 09:14:11;;;;;;;16.50;8.13;;;;;;;;;;8231558;28;20041;-58
2023/12/18 09:18:11;;;;;;;11.82;7.55;;;;;;;;;;8230026;28;20043;-58
2023/12/18 09:22:12;;;;;;;11.27;8.30;;;;;;;;;;8236127;28;20026;-57
2023/12/18 09:26:13;;;;;;;12.73;8.05;;;;;;;;;;8235496;28;20277;-56
2023/12/18 09:30:13;;;;;;;13.07;8.82;;;;;;;;;;8233380;28;20040;-58
2023/12/18 09:34:14;;;;;;;11.60;8.13;;;;;;;;;;8235501;28;20014;-57
2023/12/18 09:38:14;;;;;;;11.02;7.65;;;;;;;;;;8235453;28;20092;-57
2023/12/18 09:42:14;;;;;;;13.18;8.48;;;;;;;;;;8230288;28;20111;-57
2023/12/18 09:46:14;;;;;;;11.37;8.07;;;;;;;;;;8226330;28;20077;-58
2023/12/18 09:50:15;;;;;;;13.65;8.10;;;;;;;;;;8227955;28;20363;-58
2023/12/18 09:54:15;;;;;;;12.02;8.27;;;;;;;;;;8230118;28;20034;-58
2023/12/18 09:58:18;;;;;;;15.95;9.68;;;;;;;;;;8226472;28;20045;-56
2023/12/18 10:02:18;;;;;;;11.98;8.07;;;;;;;;;;8232709;28;20037;-57
2023/12/18 10:06:19;;;;;;;13.10;8.90;;;;;;;;;;8228182;28;20029;-57
2023/12/18 10:10:20;;;;;;;14.05;9.23;;;;;;;;;;8231521;28;20811;-56
2023/12/18 10:14:20;;;;;;;10.00;8.23;;;;;;;;;;8228992;28;20029;-57
2023/12/18 10:18:23;;;;;;;11.07;7.72;;;;;;;;;;8230286;28;20565;-56
2023/12/18 10:22:25;;;;;;;12.82;8.20;;;;;;;;;;8226624;28;20033;-57
2023/12/18 10:26:26;;;;;;;11.35;8.40;;;;;;;;;;8227734;28;20030;-55
2023/12/18 10:30:28;;;;;;;11.23;9.00;;;;;;;;;;8227987;28;20049;-56
2023/12/18 10:34:31;;;;;;;11.35;7.82;;;;;;;;;;8228319;28;20024;-56
2023/12/18 10:38:34;;;;;;;11.63;7.70;;;;;;;;;;8228302;28;20028;-57
2023/12/18 10:42:36;;;;;;;10.10;8.85;;;;;;;;;;8229695;28;20099;-57
2023/12/18 10:46:36;;;;;;;15.90;10.48;;;;;;;;;;8224817;28;20065;-57
2023/12/18 10:50:37;;;;;;;12.63;9.25;;;;;;;;;;8229328;28;20061;-58
2023/12/18 10:54:38;;;;;;;16.85;10.93;;;;;;;;;;8227220;28;20088;-57
2023/12/18 10:58:40;;;;;;;13.07;9.18;;;;;;;;;;8224524;28;20479;-59
2023/12/18 11:02:41;;;;;;;12.57;8.68;;;;;;;;;;8225340;28;20580;-58
2023/12/18 11:06:41;;;;;;;13.02;8.75;;;;;;;;;;8227951;28;20881;-57
2023/12/18 11:10:41;;;;;;;12.55;8.13;;;;;;;;;;8225001;28;20089;-58
2023/12/18 11:14:44;;;;;;;9.07;7.35;;;;;;;;;;8233099;28;20048;-58
2023/12/18 11:19:04;;;;;;;8.90;6.63;;;;;;;;;;8223564;28;20746;-58
2023/12/18 11:23:05;;;;;;;11.40;7.80;;;;;;;;;;8226276;28;20795;-58
2023/12/18 11:27:05;;;;;;;13.48;8.02;;;;;;;;;;8225641;28;20063;-58
2023/12/18 11:31:07;;;;;;;8.98;6.80;;;;;;;;;;8227431;28;20994;-57
2023/12/18 11:35:10;;;;;;;11.45;7.18;;;;;;;;;;8229703;28;20057;-58
2023/12/18 11:39:11;;;;;;;10.02;7.05;;;;;;;;;;8227560;28;20029;-57
2023/12/18 11:43:12;;;;;;;8.27;5.90;;;;;;;;;;8226835;28;20026;-57
2023/12/18 11:47:12;;;;;;;8.50;6.30;;;;;;;;;;8223270;28;21081;-56
2023/12/18 11:51:12;;;;;;;7.75;5.90;;;;;;;;;;8229316;28;20069;-56
2023/12/18 11:55:12;;;;;;;5.97;4.20;;;;;;;;;;8227047;28;20037;-57
2023/12/18 11:59:15;;;;;;;3.38;3.00;;;;;;;;;;8225424;28;20037;-53
2023/12/18 12:03:15;;;;;;;4.18;3.03;;;;;;;;;;8228017;28;20458;-56
2023/12/18 12:07:16;;;;;;;3.08;2.70;;;;;;;;;;8222071;28;20021;-57
2023/12/18 12:11:19;;;;;;;3.20;2.70;;;;;;;;;;8229256;28;20084;-57
2023/12/18 12:15:22;;;;;;;4.43;2.50;;;;;;;;;;8224490;28;20034;-57
2023/12/18 12:19:31;;;;;;;2.45;2.25;;;;;;;;;;8226489;28;20068;-57
2023/12/18 12:23:31;;;;;;;7.43;5.63;;;;;;;;;;8233521;28;20022;-58
2023/12/18 12:27:32;;;;;;;6.22;4.97;;;;;;;;;;8230530;28;20030;-58
2023/12/18 12:31:32;;;;;;;6.35;5.68;;;;;;;;;;8227338;28;20065;-58
2023/12/18 12:35:33;;;;;;;6.85;5.50;;;;;;;;;;8231518;28;20034;-57
2023/12/18 12:39:33;;;;;;;4.75;2.97;;;;;;;;;;8227832;28;20033;-56
2023/12/18 12:43:34;;;;;;;3.20;2.88;;;;;;;;;;8223582;28;20026;-56
2023/12/18 12:47:34;;;;;;;3.45;2.97;;;;;;;;;;8219581;28;20748;-57
2023/12/18 12:51:36;;;;;;;2.87;2.63;;;;;;;;;;8224713;28;20133;-57
2023/12/18 12:55:37;;;;;;;4.03;3.03;;;;;;;;;;8234718;28;20268;-58
2023/12/18 12:59:47;;;;;;;3.85;3.00;;;;;;;;;;8229091;28;20835;-56
2023/12/18 13:03:48;;;;;;;5.00;3.65;;;;;;;;;;8228822;28;21089;-57
2023/12/18 13:07:50;;;;;;;6.38;3.78;;;;;;;;;;8225599;28;20566;-58
2023/12/18 13:11:50;;;;;;;3.75;3.15;;;;;;;;;;8227931;28;20030;-57
2023/12/18 13:15:51;;;;;;;4.60;3.13;;;;;;;;;;8226540;28;20053;-57
2023/12/18 13:19:51;;;;;;;6.80;4.35;;;;;;;;;;8228433;28;20108;-57
2023/12/18 13:23:51;;;;;;;7.03;4.32;;;;;;;;;;8226202;28;20022;-58
2023/12/18 13:27:51;;;;;;;7.55;5.75;;;;;;;;;;8226635;28;20609;-56
2023/12/18 13:31:52;;;;;;;8.07;5.00;;;;;;;;;;8223238;28;20053;-57
2023/12/18 13:35:53;;;;;;;8.88;5.22;;;;;;;;;;8222748;28;20022;-56
2023/12/18 13:39:53;;;;;;;4.78;4.28;;;;;;;;;;8222809;28;20028;-58
2023/12/18 13:43:53;;;;;;;5.45;4.38;;;;;;;;;;8225019;28;20152;-57
2023/12/18 13:47:53;;;;;;;5.28;4.50;;;;;;;;;;8223932;28;20131;-57
2023/12/18 13:51:54;;;;;;;6.57;4.72;;;;;;;;;;8222899;28;20033;-56
2023/12/18 13:55:54;;;;;;;6.22;4.95;;;;;;;;;;8229049;28;20033;-56
2023/12/18 13:59:54;;;;;;;6.95;4.78;;;;;;;;;;8226404;28;20140;-55
2023/12/18 14:03:54;;;;;;;6.70;5.18;;;;;;;;;;8220176;28;20042;-57
2023/12/18 14:07:55;;;;;;;7.07;5.18;;;;;;;;;;8224634;28;20100;-57
2023/12/18 14:11:56;;;;;;;7.68;5.13;;;;;;;;;;8236526;28;20184;-57
2023/12/18 14:15:57;;;;;;;8.18;5.60;;;;;;;;;;8243035;28;20038;-57
2023/12/18 14:20:03;;;;;;;8.25;5.75;;;;;;;;;;8230170;28;20029;-58
2023/12/18 14:24:04;;;;;;;8.45;5.50;;;;;;;;;;8225783;28;20022;-58
2023/12/18 14:28:04;;;;;;;7.75;5.53;;;;;;;;;;8226163;28;20026;-58
2023/12/18 14:32:04;;;;;;;6.97;5.70;;;;;;;;;;8221087;28;20136;-55
2023/12/18 14:36:05;;;;;;;6.28;4.30;;;;;;;;;;8227075;28;20051;-58
2023/12/18 14:40:05;;;;;;;6.32;4.93;;;;;;;;;;8225940;28;20030;-57
2023/12/18 14:44:05;;;;;;;5.65;4.63;;;;;;;;;;8223508;28;20022;-57
2023/12/18 14:48:07;;;;;;;5.57;4.78;;;;;;;;;;8221429;28;20058;-56
2023/12/18 14:52:07;;;;;;;6.03;4.50;;;;;;;;;;8223022;28;20274;-57
2023/12/18 14:56:08;;;;;;;7.40;4.93;;;;;;;;;;8225812;28;20362;-57
2023/12/18 15:00:09;;;;;;;5.75;3.03;;;;;;;;;;8225503;28;20037;-56
2023/12/18 15:04:09;;;;;;;3.00;2.70;;;;;;;;;;8222052;28;22473;-56
2023/12/18 15:08:09;;;;;;;3.70;2.70;;;;;;;;;;8219413;28;21420;-58
2023/12/18 15:12:10;;;;;;;3.60;2.80;;;;;;;;;;8224849;28;20039;-57
2023/12/18 15:16:10;;;;;;;4.22;2.55;;;;;;;;;;8223000;28;20046;-57
2023/12/18 15:20:10;;;;;;;4.85;2.80;;;;;;;;;;8223089;28;20124;-56
2023/12/18 15:24:12;;;;;;;3.90;2.67;;;;;;;;;;8217572;28;20034;-56
2023/12/18 15:28:12;;;;;;;4.32;2.92;;;;;;;;;;8213640;28;20319;-57
2023/12/18 15:32:12;;;;;;;6.10;4.43;;;;;;;;;;8219942;28;20048;-58
2023/12/18 15:36:13;;;;;;;7.15;5.43;;;;;;;;;;8216418;28;20077;-57
2023/12/18 15:40:13;;;;;;;7.80;5.27;;;;;;;;;;8219770;28;20090;-57
2023/12/18 15:44:13;;;;;;;6.50;4.78;;;;;;;;;;8218126;28;20272;-57
2023/12/18 15:48:13;;;;;;;7.60;4.47;;;;;;;;;;8220799;28;20072;-57
2023/12/18 15:52:17;;;;;;;6.73;5.07;;;;;;;;;;8223707;28;20030;-57
2023/12/18 15:56:17;;;;;;;11.00;5.45;;;;;;;;;;8229414;28;20288;-56
2023/12/18 16:00:19;;;;;;;6.32;5.47;;;;;;;;;;8226443;28;20033;-57
2023/12/18 16:04:19;;;;;;;7.60;5.38;;;;;;;;;;8226455;28;20021;-58
2023/12/18 16:08:19;;;;;;;6.43;4.95;;;;;;;;;;8226382;28;20026;-58
2023/12/18 16:12:19;;;;;;;8.05;5.57;;;;;;;;;;8225375;28;20030;-57
2023/12/18 16:16:20;;;;;;;7.45;5.20;;;;;;;;;;8228945;28;20038;-57
2023/12/18 16:20:20;;;;;;;9.20;6.00;;;;;;;;;;8223469;28;20433;-58
2023/12/18 16:24:20;;;;;;;6.70;4.63;;;;;;;;;;8216638;28;20022;-55
2023/12/18 16:28:21;;;;;;;6.40;4.70;;;;;;;;;;8223769;28;20025;-57
2023/12/18 16:32:22;;;;;;;7.53;5.93;;;;;;;;;;8232587;28;20875;-58
2023/12/18 16:36:26;;;;;;;13.37;7.77;;;;;;;;;;8234891;28;20033;-57
2023/12/18 16:40:27;;;;;;;10.18;7.57;;;;;;;;;;8226268;28;20758;-58
2023/12/18 16:44:27;;;;;;;13.05;7.45;;;;;;;;;;8223936;28;20108;-56
2023/12/18 16:48:28;;;;;;;11.25;7.88;;;;;;;;;;8227982;28;20038;-58
2023/12/18 16:52:31;;;;;;;9.20;6.10;;;;;;;;;;8220491;28;20996;-58
2023/12/18 16:56:32;;;;;;;7.70;5.53;;;;;;;;;;8224775;28;21128;-57
2023/12/18 17:00:32;;;;;;;7.13;5.28;;;;;;;;;;8225516;28;20046;-57
2023/12/18 17:04:32;;;;;;;6.18;4.72;;;;;;;;;;8221558;28;20056;-57
2023/12/18 17:08:34;;;;;;;8.45;4.72;;;;;;;;;;8222361;28;20036;-56
2023/12/18 17:12:34;;;;;;;5.18;4.50;;;;;;;;;;8217383;28;20146;-57
2023/12/18 17:16:35;;;;;;;8.93;5.65;;;;;;;;;;8222621;28;20169;-57
2023/12/18 17:20:35;;;;;;;10.50;6.45;;;;;;;;;;8224113;28;21713;-57
2023/12/18 17:24:35;;;;;;;8.27;6.60;;;;;;;;;;8223462;28;20083;-57
2023/12/18 17:28:36;;;;;;;8.80;5.47;;;;;;;;;;8222910;28;20051;-58
2023/12/18 17:32:36;;;;;;;7.05;5.85;;;;;;;;;;8222085;28;20280;-57
2023/12/18 17:36:37;;;;;;;7.63;6.20;;;;;;;;;;8220281;28;20030;-58
2023/12/18 17:40:37;;;;;;;10.00;6.97;;;;;;;;;;8231584;28;20025;-58
2023/12/18 17:44:37;;;;;;;9.83;6.70;;;;;;;;;;8232586;28;20029;-57
2023/12/18 17:48:38;;;;;;;8.35;6.45;;;;;;;;;;8227391;28;20273;-58
2023/12/18 17:52:38;;;;;;;11.52;6.45;;;;;;;;;;8220255;28;20030;-59
2023/12/18 17:56:39;;;;;;;10.30;6.47;;;;;;;;;;8220802;28;20263;-58
2023/12/18 18:00:39;;;;;;;9.35;6.05;;;;;;;;;;8222640;28;20042;-58
2023/12/18 18:04:39;;;;;;;8.20;6.50;;;;;;;;;;8225730;28;20483;-58
2023/12/18 18:08:39;;;;;;;9.23;6.60;;;;;;;;;;8226911;28;20734;-57
2023/12/18 18:12:39;;;;;;;9.45;6.63;;;;;;;;;;8226151;28;20033;-58
2023/12/18 18:16:41;;;;;;;11.60;6.38;;;;;;;;;;8229126;28;20037;-58
2023/12/18 18:20:41;;;;;;;8.73;6.22;;;;;;;;;;8225097;28;20029;-58
2023/12/18 18:24:41;;;;;;;10.30;6.78;;;;;;;;;;8225134;28;20141;-57
2023/12/18 18:28:41;;;;;;;10.73;7.30;;;;;;;;;;8218639;28;20030;-58
2023/12/18 18:32:41;;;;;;;11.75;8.20;;;;;;;;;;8226742;28;20065;-58
2023/12/18 18:36:44;;;;;;;11.85;8.05;;;;;;;;;;8222836;28;20124;-58
2023/12/18 18:40:44;;;;;;;9.75;6.72;;;;;;;;;;8227510;28;20068;-58
2023/12/18 18:44:44;;;;;;;8.70;6.18;;;;;;;;;;8220016;28;20053;-56
2023/12/18 18:48:45;;;;;;;7.88;5.85;;;;;;;;;;8226603;28;20038;-57
2023/12/18 18:52:45;;;;;;;8.75;5.25;;;;;;;;;;8229199;28;21125;-58
2023/12/18 18:56:46;;;;;;;5.85;4.60;;;;;;;;;;8234595;28;20720;-58
2023/12/18 19:00:48;;;;;;;5.22;4.13;;;;;;;;;;8233792;28;20045;-57
2023/12/18 19:04:49;;;;;;;6.55;4.28;;;;;;;;;;8235325;28;20841;-57
2023/12/18 19:08:50;;;;;;;9.00;5.28;;;;;;;;;;8235440;28;20022;-58
2023/12/18 19:12:50;;;;;;;6.65;4.65;;;;;;;;;;8232919;28;20018;-57
2023/12/18 19:16:50;;;;;;;8.80;5.95;;;;;;;;;;8230749;28;20042;-58
2023/12/18 19:20:53;;;;;;;9.75;6.13;;;;;;;;;;8223313;28;20152;-58
2023/12/18 19:24:53;;;;;;;7.25;5.32;;;;;;;;;;8221889;28;20068;-58
2023/12/18 19:28:53;;;;;;;6.57;4.47;;;;;;;;;;8220619;28;20038;-58
2023/12/18 19:32:53;;;;;;;8.35;5.15;;;;;;;;;;8223216;28;20077;-57
2023/12/18 19:36:54;;;;;;;7.90;4.60;;;;;;;;;;8224753;28;20040;-57
2023/12/18 19:40:54;;;;;;;5.72;4.10;;;;;;;;;;8224633;28;20285;-58
2023/12/18 19:44:56;;;;;;;7.70;5.03;;;;;;;;;;8223413;28;20048;-57
2023/12/18 19:48:58;;;;;;;9.05;5.50;;;;;;;;;;8223968;28;20287;-57
2023/12/18 19:52:58;;;;;;;10.23;6.47;;;;;;;;;;8218063;28;20029;-58
2023/12/18 19:56:58;;;;;;;10.50;6.82;;;;;;;;;;8222459;28;20021;-56
2023/12/18 20:00:58;;;;;;;10.02;6.55;;;;;;;;;;8229175;28;20036;-57
2023/12/18 20:04:59;;;;;;;10.02;6.53;;;;;;;;;;8229620;28;20029;-56
2023/12/18 20:09:00;;;;;;;9.25;7.18;;;;;;;;;;8228429;28;20041;-58
2023/12/18 20:13:00;;;;;;;12.27;7.40;;;;;;;;;;8218180;28;20041;-58
2023/12/18 20:17:00;;;;;;;10.93;6.82;;;;;;;;;;8222900;28;20088;-58
2023/12/18 20:21:00;;;;;;;11.57;6.82;;;;;;;;;;8216518;28;20021;-57
2023/12/18 20:25:01;;;;;;;13.80;7.20;;;;;;;;;;8219439;28;20056;-58
2023/12/18 20:29:01;;;;;;;8.13;6.00;;;;;;;;;;8224087;28;20033;-56
2023/12/18 20:33:02;;;;;;;8.23;5.25;;;;;;;;;;8219460;28;20034;-57
2023/12/18 20:37:03;;;;;;;8.15;5.30;;;;;;;;;;8225742;28;20018;-57
2023/12/18 20:41:03;;;;;;;7.78;4.78;;;;;;;;;;8224135;28;20033;-57
2023/12/18 20:45:04;;;;;;;6.90;4.28;;;;;;;;;;8226605;28;20467;-57
2023/12/18 20:49:04;;;;;;;8.82;4.95;;;;;;;;;;8226861;28;20129;-56
2023/12/18 20:53:04;;;;;;;6.82;4.75;;;;;;;;;;8214900;28;20026;-58
2023/12/18 20:57:04;;;;;;;6.40;4.35;;;;;;;;;;8219490;28;20260;-57
2023/12/18 21:01:05;;;;;;;6.25;4.28;;;;;;;;;;8227557;28;20068;-56
2023/12/18 21:05:06;;;;;;;5.82;4.15;;;;;;;;;;8225234;28;20486;-57
2023/12/18 21:09:06;;;;;;;5.30;3.70;;;;;;;;;;8225826;28;20485;-58
2023/12/18 21:13:08;;;;;;;5.22;3.30;;;;;;;;;;8219641;28;20111;-57
2023/12/18 21:17:08;;;;;;;5.05;3.17;;;;;;;;;;8219791;28;20048;-57
2023/12/18 21:21:08;;;;;;;4.03;2.90;;;;;;;;;;8213577;28;21913;-57
2023/12/18 21:25:09;;;;;;;5.18;3.30;;;;;;;;;;8217961;28;20152;-57
2023/12/18 21:29:10;;;;;;;5.07;3.08;;;;;;;;;;8217573;28;20145;-57
2023/12/18 21:33:10;;;;;;;3.90;2.78;;;;;;;;;;8217137;28;20049;-58
2023/12/18 21:37:11;;;;;;;4.57;3.10;;;;;;;;;;8218757;28;20033;-57
2023/12/18 21:41:12;;;;;;;8.85;3.53;;;;;;;;;;8217983;28;20036;-58
2023/12/18 21:45:14;;;;;;;5.03;3.22;;;;;;;;;;8216383;28;20029;-58
2023/12/18 21:49:14;;;;;;;5.32;3.75;;;;;;;;;;8218721;28;20022;-57
2023/12/18 21:53:18;;;;;;;6.45;3.65;;;;;;;;;;8219718;28;20030;-57
2023/12/18 21:57:18;;;;;;;4.97;3.42;;;;;;;;;;8210999;28;20036;-58
2023/12/18 22:01:18;;;;;;;6.32;3.78;;;;;;;;;;8211911;28;20039;-58
2023/12/18 22:05:19;;;;;;;4.68;3.45;;;;;;;;;;8219250;28;20160;-58
2023/12/18 22:09:19;;;;;;;4.22;3.25;;;;;;;;;;8221040;28;20029;-57
2023/12/18 22:13:19;;;;;;;5.63;3.72;;;;;;;;;;8219625;28;20144;-57
2023/12/18 22:17:19;;;;;;;5.20;3.83;;;;;;;;;;8220472;28;20042;-57
2023/12/18 22:21:20;;;;;;;6.03;3.42;;;;;;;;;;8216549;28;20595;-57
2023/12/18 22:25:20;;;;;;;4.97;3.58;;;;;;;;;;8219748;28;20049;-58
2023/12/18 22:29:20;;;;;;;6.80;3.53;;;;;;;;;;8226973;28;20454;-57
2023/12/18 22:33:20;;;;;;;4.43;3.47;;;;;;;;;;8224611;28;20375;-57
2023/12/18 22:37:20;;;;;;;5.00;4.10;;;;;;;;;;8228166;28;20036;-58
2023/12/18 22:41:21;;;;;;;5.15;3.60;;;;;;;;;;8224513;28;20068;-58
2023/12/18 22:45:21;;;;;;;6.85;3.88;;;;;;;;;;8230541;28;20069;-58
2023/12/18 22:49:21;;;;;;;7.73;4.10;;;;;;;;;;8227114;28;20053;-58
2023/12/18 22:53:22;;;;;;;5.57;3.90;;;;;;;;;;8218709;28;20298;-58
2023/12/18 22:57:22;;;;;;;6.32;4.45;;;;;;;;;;8224846;28;20029;-58
2023/12/18 23:01:23;;;;;;;6.63;4.55;;;;;;;;;;8221475;28;20864;-58
2023/12/18 23:05:24;;;;;;;6.82;4.70;;;;;;;;;;8224719;28;20507;-56
2023/12/18 23:09:24;;;;;;;7.13;5.32;;;;;;;;;;8226041;28;20033;-58
2023/12/18 23:13:24;;;;;;;6.75;4.90;;;;;;;;;;8224424;28;20084;-58
2023/12/18 23:17:24;;;;;;;7.20;5.00;;;;;;;;;;8220342;28;20045;-57
2023/12/18 23:21:25;;;;;;;7.82;4.78;;;;;;;;;;8215105;28;20017;-57
2023/12/18 23:25:25;;;;;;;7.35;4.82;;;;;;;;;;8223728;28;20048;-56
2023/12/18 23:29:25;;;;;;;5.60;4.15;;;;;;;;;;8224707;28;20030;-57
2023/12/18 23:33:25;;;;;;;4.13;3.58;;;;;;;;;;8227415;28;20038;-57
2023/12/18 23:37:25;;;;;;;5.20;3.43;;;;;;;;;;8224576;28;20608;-58
2023/12/18 23:41:26;;;;;;;5.88;3.28;;;;;;;;;;8225495;28;20665;-58
2023/12/18 23:45:26;;;;;;;4.30;3.17;;;;;;;;;;8225011;28;20037;-58
2023/12/18 23:49:27;;;;;;;5.22;3.05;;;;;;;;;;8219359;28;20034;-56